Time;durP1;ratioP1;P1;durP2;ratioP2;P2;SDS_P1;SDS_P2;PMS_P1;PMS_P2;Temp;Humidity;BMP_temperature;BMP_pressure;BME280_temperature;BME280_humidity;BME280_pressure;Samples;Min_cycle;Max_cycle;Signal;HPM_P1;HPM_P2
2023/04/27 00:01:11;;;;;;;7.75;4.53;;;;;;;;;;5000677;28;20141;-69
2023/04/27 00:03:37;;;;;;;6.03;3.65;;;;;;;;;;5000131;28;20121;-69
2023/04/27 00:06:02;;;;;;;7.05;4.00;;;;;;;;;;5000110;28;20140;-69
2023/04/27 00:08:28;;;;;;;7.55;3.60;;;;;;;;;;5000775;28;20132;-69
2023/04/27 00:10:53;;;;;;;7.55;4.00;;;;;;;;;;5000977;28;20160;-69
2023/04/27 00:13:19;;;;;;;9.77;3.75;;;;;;;;;;4999730;28;20141;-69
2023/04/27 00:15:44;;;;;;;5.63;4.35;;;;;;;;;;5000654;28;20042;-70
2023/04/27 00:18:10;;;;;;;9.02;4.07;;;;;;;;;;4999879;28;20084;-69
2023/04/27 00:20:39;;;;;;;6.75;3.70;;;;;;;;;;4989491;28;20133;-69
2023/04/27 00:23:04;;;;;;;6.05;4.20;;;;;;;;;;5000549;28;20050;-70
2023/04/27 00:25:30;;;;;;;8.68;4.05;;;;;;;;;;4999993;28;20049;-69
2023/04/27 00:27:55;;;;;;;8.30;4.50;;;;;;;;;;5000368;28;20574;-70
2023/04/27 00:30:21;;;;;;;8.30;4.80;;;;;;;;;;4998111;28;20049;-69
2023/04/27 00:32:46;;;;;;;10.18;4.50;;;;;;;;;;5000480;28;20049;-69
2023/04/27 00:35:15;;;;;;;4.80;4.30;;;;;;;;;;4999832;28;20151;-70
2023/04/27 00:37:40;;;;;;;15.45;4.50;;;;;;;;;;5000492;28;20571;-70
2023/04/27 00:40:07;;;;;;;6.55;4.68;;;;;;;;;;4997923;28;20104;-70
2023/04/27 00:42:34;;;;;;;10.02;4.55;;;;;;;;;;4998767;28;20041;-69
2023/04/27 00:45:00;;;;;;;11.45;4.55;;;;;;;;;;4998946;28;20050;-69
2023/04/27 00:47:27;;;;;;;7.75;4.03;;;;;;;;;;4997937;28;20050;-69
2023/04/27 00:49:52;;;;;;;6.07;4.20;;;;;;;;;;4998609;28;20997;-69
2023/04/27 00:52:18;;;;;;;11.75;4.40;;;;;;;;;;4999676;28;20054;-70
2023/04/27 00:54:44;;;;;;;6.15;4.03;;;;;;;;;;4998542;28;20037;-70
2023/04/27 00:57:09;;;;;;;10.43;4.00;;;;;;;;;;4998129;28;20042;-70
2023/04/27 00:59:35;;;;;;;6.32;4.38;;;;;;;;;;5000177;28;20080;-70
2023/04/27 01:02:01;;;;;;;8.50;4.28;;;;;;;;;;4999450;28;20045;-70
2023/04/27 01:04:27;;;;;;;7.22;4.07;;;;;;;;;;5008329;28;20053;-70
2023/04/27 01:06:53;;;;;;;5.50;3.75;;;;;;;;;;4998864;28;20049;-70
2023/04/27 01:09:19;;;;;;;10.20;4.28;;;;;;;;;;4997947;28;20038;-70
2023/04/27 01:11:48;;;;;;;8.88;3.95;;;;;;;;;;4997274;28;20053;-70
2023/04/27 01:14:13;;;;;;;5.07;3.70;;;;;;;;;;4995875;28;20418;-69
2023/04/27 01:16:39;;;;;;;6.75;3.80;;;;;;;;;;4982303;28;20037;-69
2023/04/27 01:19:06;;;;;;;10.02;3.78;;;;;;;;;;4998076;28;20046;-69
2023/04/27 01:21:32;;;;;;;6.65;3.88;;;;;;;;;;4994477;28;20046;-70
2023/04/27 01:23:57;;;;;;;8.45;3.63;;;;;;;;;;4998716;28;20048;-69
2023/04/27 01:26:22;;;;;;;5.20;3.72;;;;;;;;;;4997770;28;20549;-69
2023/04/27 01:28:48;;;;;;;5.95;4.00;;;;;;;;;;4998260;28;20490;-69
2023/04/27 01:31:14;;;;;;;6.82;3.78;;;;;;;;;;4997938;28;20038;-69
2023/04/27 01:33:40;;;;;;;8.25;4.20;;;;;;;;;;4983710;28;20042;-69
2023/04/27 01:36:07;;;;;;;6.70;3.78;;;;;;;;;;4987105;28;20631;-69
2023/04/27 01:38:33;;;;;;;6.95;4.03;;;;;;;;;;4999491;28;20046;-70
2023/04/27 01:41:00;;;;;;;6.25;3.78;;;;;;;;;;4970020;28;20057;-70
2023/04/27 01:43:27;;;;;;;5.18;3.40;;;;;;;;;;5007580;28;20054;-70
2023/04/27 01:45:53;;;;;;;6.68;3.25;;;;;;;;;;4972870;28;20042;-69
2023/04/27 01:48:20;;;;;;;4.72;3.55;;;;;;;;;;4985895;28;20042;-69
2023/04/27 01:50:45;;;;;;;7.47;3.65;;;;;;;;;;5001804;28;20099;-69
2023/04/27 01:53:11;;;;;;;9.25;3.70;;;;;;;;;;5003048;28;20125;-69
2023/04/27 01:55:36;;;;;;;10.02;3.83;;;;;;;;;;5001707;28;20054;-69
2023/04/27 01:58:02;;;;;;;11.30;4.03;;;;;;;;;;4984829;28;20042;-69
2023/04/27 02:00:28;;;;;;;5.78;3.58;;;;;;;;;;5000032;28;20041;-69
2023/04/27 02:02:56;;;;;;;5.95;3.40;;;;;;;;;;5002571;28;20132;-69
2023/04/27 02:05:22;;;;;;;12.63;3.97;;;;;;;;;;5002701;28;20069;-70
2023/04/27 02:07:48;;;;;;;5.07;3.40;;;;;;;;;;5001472;28;20149;-69
2023/04/27 02:10:13;;;;;;;5.80;3.20;;;;;;;;;;4999860;28;20415;-70
2023/04/27 02:12:39;;;;;;;8.73;3.50;;;;;;;;;;5003119;28;20521;-70
2023/04/27 02:15:07;;;;;;;4.90;3.50;;;;;;;;;;5000894;28;20057;-70
2023/04/27 02:17:33;;;;;;;3.78;3.45;;;;;;;;;;5001541;28;20048;-70
2023/04/27 02:19:59;;;;;;;7.68;3.53;;;;;;;;;;5000617;28;20479;-70
2023/04/27 02:22:25;;;;;;;4.82;3.28;;;;;;;;;;5000331;28;20450;-69
2023/04/27 02:24:51;;;;;;;5.10;3.25;;;;;;;;;;5002776;28;20569;-69
2023/04/27 02:27:16;;;;;;;7.05;3.33;;;;;;;;;;5002188;28;20048;-69
2023/04/27 02:29:42;;;;;;;9.82;3.30;;;;;;;;;;5001043;28;20414;-69
2023/04/27 02:32:07;;;;;;;6.00;3.30;;;;;;;;;;5000288;28;20419;-69
2023/04/27 02:34:32;;;;;;;4.65;2.92;;;;;;;;;;5001108;28;20049;-69
2023/04/27 02:36:58;;;;;;;5.82;3.40;;;;;;;;;;5000998;28;20050;-70
2023/04/27 02:39:24;;;;;;;4.38;2.97;;;;;;;;;;5000987;28;20066;-69
2023/04/27 02:41:49;;;;;;;8.05;3.50;;;;;;;;;;5000628;28;20075;-70
2023/04/27 02:44:14;;;;;;;5.85;3.15;;;;;;;;;;5000728;28;20058;-70
2023/04/27 02:46:40;;;;;;;8.05;3.45;;;;;;;;;;4992250;28;20052;-69
2023/04/27 02:49:05;;;;;;;5.72;3.20;;;;;;;;;;5000400;28;20052;-70
2023/04/27 02:51:31;;;;;;;3.95;3.15;;;;;;;;;;5002155;28;20137;-70
2023/04/27 02:53:56;;;;;;;4.60;3.80;;;;;;;;;;4999363;28;20410;-70
2023/04/27 02:56:22;;;;;;;7.40;3.63;;;;;;;;;;4998527;28;20116;-69
2023/04/27 02:58:47;;;;;;;6.70;4.40;;;;;;;;;;4990348;28;20038;-69
2023/04/27 03:01:16;;;;;;;6.65;3.92;;;;;;;;;;4978495;28;20145;-70
2023/04/27 03:03:48;;;;;;;6.30;4.07;;;;;;;;;;4972512;28;20038;-69
2023/04/27 03:06:14;;;;;;;5.72;4.28;;;;;;;;;;4970630;28;20049;-70
2023/04/27 03:08:39;;;;;;;7.13;4.40;;;;;;;;;;4972592;28;20039;-69
2023/04/27 03:11:05;;;;;;;6.60;4.35;;;;;;;;;;4979033;28;21067;-69
2023/04/27 03:13:34;;;;;;;7.07;4.88;;;;;;;;;;4988651;28;20049;-70
2023/04/27 03:16:00;;;;;;;8.65;4.53;;;;;;;;;;5001088;28;20122;-70
2023/04/27 03:18:25;;;;;;;7.75;4.57;;;;;;;;;;5007875;28;20572;-70
2023/04/27 03:20:51;;;;;;;12.15;4.80;;;;;;;;;;4969556;28;20486;-70
2023/04/27 03:23:16;;;;;;;6.68;4.82;;;;;;;;;;4965896;28;20055;-70
2023/04/27 03:25:42;;;;;;;26.27;16.75;;;;;;;;;;4990115;28;20050;-69
2023/04/27 03:28:07;;;;;;;21.75;15.10;;;;;;;;;;4976881;28;20054;-69
2023/04/27 03:30:32;;;;;;;17.50;12.65;;;;;;;;;;4976167;28;20131;-69
2023/04/27 03:32:59;;;;;;;18.02;13.25;;;;;;;;;;4984797;28;20511;-70
2023/04/27 03:35:25;;;;;;;20.83;13.57;;;;;;;;;;4981202;28;20082;-70
2023/04/27 03:37:50;;;;;;;31.45;17.67;;;;;;;;;;4977367;28;20050;-69
2023/04/27 03:40:15;;;;;;;24.92;17.73;;;;;;;;;;4979214;28;20052;-70
2023/04/27 03:42:41;;;;;;;19.27;13.43;;;;;;;;;;4989118;28;20042;-70
2023/04/27 03:45:07;;;;;;;16.85;9.63;;;;;;;;;;4977251;28;20066;-70
2023/04/27 03:47:33;;;;;;;12.50;8.63;;;;;;;;;;4976817;28;20042;-70
2023/04/27 03:49:58;;;;;;;10.27;7.45;;;;;;;;;;4985939;28;20043;-70
2023/04/27 03:52:25;;;;;;;9.68;5.75;;;;;;;;;;4978435;28;20053;-69
2023/04/27 03:54:50;;;;;;;7.60;4.95;;;;;;;;;;4999316;28;20039;-70
2023/04/27 03:57:17;;;;;;;9.48;5.72;;;;;;;;;;4990060;28;20449;-70
2023/04/27 03:59:42;;;;;;;7.32;6.00;;;;;;;;;;5006452;28;20100;-70
2023/04/27 04:02:08;;;;;;;10.52;5.80;;;;;;;;;;4966752;28;20065;-70
2023/04/27 04:04:35;;;;;;;7.50;4.97;;;;;;;;;;4998603;28;20043;-70
2023/04/27 04:07:01;;;;;;;16.38;7.22;;;;;;;;;;4978801;28;20074;-69
2023/04/27 04:09:27;;;;;;;6.40;5.28;;;;;;;;;;4979404;28;20522;-69
2023/04/27 04:11:53;;;;;;;6.10;4.53;;;;;;;;;;5004772;28;20096;-69
2023/04/27 04:14:19;;;;;;;10.23;5.18;;;;;;;;;;4976086;28;20062;-69
2023/04/27 04:16:44;;;;;;;8.70;5.57;;;;;;;;;;4973797;28;20061;-69
2023/04/27 04:19:10;;;;;;;7.88;4.82;;;;;;;;;;4978939;28;20038;-69
2023/04/27 04:21:35;;;;;;;14.80;6.07;;;;;;;;;;5004116;28;20042;-69
2023/04/27 04:24:01;;;;;;;10.48;6.35;;;;;;;;;;4995134;28;20054;-69
2023/04/27 04:26:27;;;;;;;8.52;5.53;;;;;;;;;;4998576;28;20049;-69
2023/04/27 04:28:53;;;;;;;8.95;5.63;;;;;;;;;;5013466;28;20491;-69
2023/04/27 04:31:20;;;;;;;9.40;5.68;;;;;;;;;;5012590;28;20041;-69
2023/04/27 04:33:45;;;;;;;12.32;5.78;;;;;;;;;;4998637;28;20414;-69
2023/04/27 04:36:14;;;;;;;9.73;6.20;;;;;;;;;;4996967;28;20049;-69
2023/04/27 04:38:39;;;;;;;13.73;6.35;;;;;;;;;;4999163;28;20046;-69
2023/04/27 04:41:06;;;;;;;11.15;4.95;;;;;;;;;;4997289;28;20054;-69
2023/04/27 04:43:32;;;;;;;10.90;5.18;;;;;;;;;;5013396;28;20413;-69
2023/04/27 04:46:00;;;;;;;7.90;4.88;;;;;;;;;;4990450;28;20606;-69
2023/04/27 04:48:27;;;;;;;6.57;4.82;;;;;;;;;;4998394;28;20046;-69
2023/04/27 04:50:53;;;;;;;9.88;5.50;;;;;;;;;;4996822;28;20057;-69
2023/04/27 04:53:19;;;;;;;8.98;5.50;;;;;;;;;;4998536;28;20042;-69
2023/04/27 04:55:45;;;;;;;7.72;5.30;;;;;;;;;;4996102;28;20057;-69
2023/04/27 04:58:10;;;;;;;8.90;5.53;;;;;;;;;;4995631;28;20038;-69
2023/04/27 05:00:36;;;;;;;11.52;5.55;;;;;;;;;;4995967;28;20537;-69
2023/04/27 05:03:01;;;;;;;11.02;5.60;;;;;;;;;;5013308;28;20066;-69
2023/04/27 05:05:27;;;;;;;7.13;5.78;;;;;;;;;;4996441;28;20042;-70
2023/04/27 05:07:52;;;;;;;11.00;5.22;;;;;;;;;;4998763;28;20049;-70
2023/04/27 05:10:17;;;;;;;6.22;5.00;;;;;;;;;;4978427;28;20046;-69
2023/04/27 05:12:43;;;;;;;8.95;5.05;;;;;;;;;;4985920;28;20108;-69
2023/04/27 05:15:09;;;;;;;5.82;4.70;;;;;;;;;;4999167;28;20121;-69
2023/04/27 05:17:34;;;;;;;7.88;4.82;;;;;;;;;;5000472;28;20081;-70
2023/04/27 05:20:00;;;;;;;6.05;4.53;;;;;;;;;;5001956;28;20585;-70
2023/04/27 05:22:25;;;;;;;5.70;4.43;;;;;;;;;;5002939;28;20038;-69
2023/04/27 05:24:51;;;;;;;8.95;4.88;;;;;;;;;;4986790;28;20415;-70
2023/04/27 05:27:16;;;;;;;9.38;4.60;;;;;;;;;;4985269;28;20683;-70
2023/04/27 05:29:41;;;;;;;9.20;5.72;;;;;;;;;;4986554;28;20070;-69
2023/04/27 05:32:07;;;;;;;9.30;4.72;;;;;;;;;;4998873;28;20407;-69
2023/04/27 05:34:32;;;;;;;13.13;5.32;;;;;;;;;;5002905;28;20050;-69
2023/04/27 05:36:57;;;;;;;7.00;5.03;;;;;;;;;;5003478;28;20046;-70
2023/04/27 05:39:23;;;;;;;11.50;5.38;;;;;;;;;;5002511;28;20034;-69
2023/04/27 05:41:48;;;;;;;6.47;4.80;;;;;;;;;;5002791;28;20050;-70
2023/04/27 05:44:14;;;;;;;9.65;5.00;;;;;;;;;;5002736;28;20045;-70
2023/04/27 05:46:39;;;;;;;11.30;5.60;;;;;;;;;;5003329;28;20050;-70
2023/04/27 05:49:05;;;;;;;7.90;4.88;;;;;;;;;;5002236;28;20050;-70
2023/04/27 05:51:32;;;;;;;10.55;5.50;;;;;;;;;;5002421;28;20142;-71
2023/04/27 05:53:58;;;;;;;8.50;5.30;;;;;;;;;;5002180;28;20053;-71
2023/04/27 05:56:24;;;;;;;12.05;4.88;;;;;;;;;;5003509;28;20045;-69
2023/04/27 05:58:50;;;;;;;10.77;5.90;;;;;;;;;;5002592;28;21030;-70
2023/04/27 06:01:16;;;;;;;7.60;4.68;;;;;;;;;;5000430;28;20141;-70
2023/04/27 06:03:41;;;;;;;5.70;4.30;;;;;;;;;;5002753;28;20052;-70
2023/04/27 06:06:07;;;;;;;10.85;4.40;;;;;;;;;;5002260;28;20064;-70
2023/04/27 06:08:36;;;;;;;11.27;4.68;;;;;;;;;;5001868;28;20128;-71
2023/04/27 06:11:01;;;;;;;9.60;5.13;;;;;;;;;;5002904;28;20061;-70
2023/04/27 06:13:27;;;;;;;9.25;4.78;;;;;;;;;;5002001;28;20054;-71
2023/04/27 06:15:52;;;;;;;6.95;4.60;;;;;;;;;;5002990;28;20054;-70
2023/04/27 06:18:18;;;;;;;7.85;4.70;;;;;;;;;;5002180;28;20046;-70
2023/04/27 06:20:43;;;;;;;9.27;4.65;;;;;;;;;;5002768;28;20045;-71
2023/04/27 06:23:09;;;;;;;7.63;4.72;;;;;;;;;;5017112;28;20514;-70
2023/04/27 06:25:36;;;;;;;8.68;4.95;;;;;;;;;;5001204;28;20044;-70
2023/04/27 06:28:01;;;;;;;7.15;4.72;;;;;;;;;;5001706;28;20054;-70
2023/04/27 06:30:27;;;;;;;7.90;4.65;;;;;;;;;;5001930;28;20046;-70
2023/04/27 06:32:52;;;;;;;7.78;4.53;;;;;;;;;;5001796;28;20136;-69
2023/04/27 06:35:18;;;;;;;7.32;4.70;;;;;;;;;;5001016;28;20049;-68
2023/04/27 06:37:44;;;;;;;6.78;4.95;;;;;;;;;;5002163;28;20046;-68
2023/04/27 06:40:10;;;;;;;9.13;5.13;;;;;;;;;;5001866;28;20038;-69
2023/04/27 06:42:35;;;;;;;6.32;4.32;;;;;;;;;;4998162;28;20050;-68
2023/04/27 06:45:01;;;;;;;9.73;4.65;;;;;;;;;;4997253;28;20037;-73
2023/04/27 06:47:26;;;;;;;7.63;5.15;;;;;;;;;;5000798;28;20450;-75
2023/04/27 06:49:52;;;;;;;8.27;4.57;;;;;;;;;;5001851;28;20514;-72
2023/04/27 06:52:18;;;;;;;7.60;4.45;;;;;;;;;;5001080;28;20050;-74
2023/04/27 06:54:43;;;;;;;6.07;4.38;;;;;;;;;;5002010;28;20046;-72
2023/04/27 06:57:09;;;;;;;8.35;4.50;;;;;;;;;;5000727;28;20141;-74
2023/04/27 06:59:35;;;;;;;6.03;4.47;;;;;;;;;;5000034;28;20070;-73
2023/04/27 07:02:00;;;;;;;6.20;4.43;;;;;;;;;;5001246;28;20050;-72
2023/04/27 07:04:26;;;;;;;9.25;4.70;;;;;;;;;;5001840;28;20966;-71
2023/04/27 07:06:51;;;;;;;10.73;4.40;;;;;;;;;;5001145;28;20063;-72
2023/04/27 07:09:17;;;;;;;13.48;4.93;;;;;;;;;;5001859;28;20139;-70
2023/04/27 07:11:42;;;;;;;7.40;4.60;;;;;;;;;;5001624;28;20065;-71
2023/04/27 07:14:07;;;;;;;11.23;4.40;;;;;;;;;;4999850;28;20054;-73
2023/04/27 07:16:33;;;;;;;9.88;4.75;;;;;;;;;;5001596;28;20064;-71
2023/04/27 07:18:58;;;;;;;9.38;4.53;;;;;;;;;;5000580;28;20070;-74
2023/04/27 07:21:24;;;;;;;5.63;4.43;;;;;;;;;;5001562;28;20042;-72
2023/04/27 07:23:49;;;;;;;8.75;4.30;;;;;;;;;;5001334;28;20088;-74
2023/04/27 07:26:15;;;;;;;7.57;4.40;;;;;;;;;;5001077;28;20045;-71
2023/04/27 07:28:41;;;;;;;7.82;4.43;;;;;;;;;;5000618;28;20033;-69
2023/04/27 07:31:06;;;;;;;7.57;4.03;;;;;;;;;;5001130;28;20091;-72
2023/04/27 07:33:33;;;;;;;7.32;4.00;;;;;;;;;;5016227;28;20038;-72
2023/04/27 07:35:58;;;;;;;8.07;4.35;;;;;;;;;;4999065;28;20067;-72
2023/04/27 07:38:24;;;;;;;8.30;5.05;;;;;;;;;;5000786;28;20416;-71
2023/04/27 07:40:51;;;;;;;8.98;4.20;;;;;;;;;;4999960;28;20050;-73
2023/04/27 07:43:16;;;;;;;11.55;4.38;;;;;;;;;;5000846;28;20104;-73
2023/04/27 07:45:42;;;;;;;10.60;4.47;;;;;;;;;;4999199;28;20037;-73
2023/04/27 07:48:08;;;;;;;5.75;4.28;;;;;;;;;;5000490;28;20502;-72
2023/04/27 07:50:34;;;;;;;5.35;3.92;;;;;;;;;;5000146;28;20046;-71
2023/04/27 07:52:59;;;;;;;6.25;3.92;;;;;;;;;;5000598;28;21127;-70
2023/04/27 07:55:25;;;;;;;8.63;4.03;;;;;;;;;;5000755;28;20450;-72
2023/04/27 07:57:55;;;;;;;5.95;4.00;;;;;;;;;;5001267;28;20057;-70
2023/04/27 08:00:22;;;;;;;5.63;3.72;;;;;;;;;;5000309;28;20046;-72
2023/04/27 08:02:49;;;;;;;9.43;4.55;;;;;;;;;;5000034;28;20108;-72
2023/04/27 08:05:16;;;;;;;11.65;4.03;;;;;;;;;;5000412;28;20045;-69
2023/04/27 08:07:41;;;;;;;9.50;4.50;;;;;;;;;;5000981;28;20056;-72
2023/04/27 08:10:07;;;;;;;6.95;3.70;;;;;;;;;;4998677;28;20439;-71
2023/04/27 08:12:33;;;;;;;5.05;3.42;;;;;;;;;;4998482;28;20054;-74
2023/04/27 08:14:58;;;;;;;5.00;3.40;;;;;;;;;;5000399;28;20046;-70
2023/04/27 08:17:24;;;;;;;5.85;3.42;;;;;;;;;;5000494;28;20057;-72
2023/04/27 08:19:49;;;;;;;6.47;3.63;;;;;;;;;;5000973;28;20050;-70
2023/04/27 08:22:15;;;;;;;10.38;3.65;;;;;;;;;;4999989;28;20054;-69
2023/04/27 08:24:40;;;;;;;8.70;4.18;;;;;;;;;;4998599;28;20471;-73
2023/04/27 08:27:06;;;;;;;6.47;3.55;;;;;;;;;;4998925;28;20481;-69
2023/04/27 08:29:31;;;;;;;5.18;3.78;;;;;;;;;;5000383;28;20065;-70
2023/04/27 08:31:59;;;;;;;9.10;3.75;;;;;;;;;;4999089;28;20050;-73
2023/04/27 08:34:24;;;;;;;8.60;3.80;;;;;;;;;;4997247;28;20057;-73
2023/04/27 08:36:50;;;;;;;6.63;3.42;;;;;;;;;;4998481;28;20045;-69
2023/04/27 08:39:16;;;;;;;6.75;4.05;;;;;;;;;;5000268;28;20042;-70
2023/04/27 08:41:42;;;;;;;5.70;3.70;;;;;;;;;;5000660;28;20049;-72
2023/04/27 08:44:08;;;;;;;11.52;4.07;;;;;;;;;;4999236;28;20069;-73
2023/04/27 08:46:36;;;;;;;5.70;4.22;;;;;;;;;;4999335;28;20042;-72
2023/04/27 08:49:01;;;;;;;5.05;3.40;;;;;;;;;;4999910;28;20050;-73
2023/04/27 08:51:27;;;;;;;5.80;3.42;;;;;;;;;;5000324;28;20502;-71
2023/04/27 08:53:55;;;;;;;6.72;3.67;;;;;;;;;;5002478;28;20129;-70
2023/04/27 08:56:24;;;;;;;8.32;4.00;;;;;;;;;;5002444;28;20406;-72
2023/04/27 08:58:49;;;;;;;7.40;3.75;;;;;;;;;;5002203;28;20132;-75
2023/04/27 09:01:15;;;;;;;6.63;3.90;;;;;;;;;;5003059;28;20152;-71
2023/04/27 09:03:41;;;;;;;6.65;3.72;;;;;;;;;;5004267;28;20045;-73
2023/04/27 09:06:07;;;;;;;8.60;4.10;;;;;;;;;;5003640;28;20137;-70
2023/04/27 09:08:49;;;;;;;10.18;3.90;;;;;;;;;;5002627;28;20041;-69
2023/04/27 09:11:15;;;;;;;;;;;;;;;;;;5003415;28;20116;-70
2023/04/27 09:13:46;;;;;;;5.65;3.55;;;;;;;;;;5003684;28;19928;-72
2023/04/27 09:16:13;;;;;;;4.55;3.97;;;;;;;;;;5003365;28;20538;-72
2023/04/27 09:18:41;;;;;;;8.68;3.80;;;;;;;;;;5002715;28;20137;-67
2023/04/27 09:21:06;;;;;;;8.02;4.32;;;;;;;;;;5004061;28;20046;-70
2023/04/27 09:23:40;;;;;;;5.57;4.15;;;;;;;;;;5018407;28;20506;-74
2023/04/27 09:26:07;;;;;;;5.75;4.05;;;;;;;;;;5001830;28;20426;-72
2023/04/27 09:28:33;;;;;;;5.97;3.80;;;;;;;;;;5003775;28;20089;-71
2023/04/27 09:31:01;;;;;;;6.60;4.20;;;;;;;;;;5002151;28;20061;-70
2023/04/27 09:33:31;;;;;;;3.92;3.45;;;;;;;;;;5003479;28;20049;-72
2023/04/27 09:35:58;;;;;;;6.47;3.60;;;;;;;;;;5003630;28;20665;-73
2023/04/27 09:38:24;;;;;;;6.03;3.90;;;;;;;;;;5003022;28;20206;-72
2023/04/27 09:40:52;;;;;;;5.88;3.63;;;;;;;;;;5002496;28;20042;-70
2023/04/27 09:43:18;;;;;;;9.75;3.67;;;;;;;;;;5003061;28;20045;-68
2023/04/27 09:45:43;;;;;;;4.35;3.40;;;;;;;;;;5003281;28;20100;-73
2023/04/27 09:48:10;;;;;;;5.38;3.58;;;;;;;;;;4999654;28;20049;-72
2023/04/27 09:50:38;;;;;;;9.23;4.38;;;;;;;;;;5002517;28;20136;-72
2023/04/27 09:53:14;;;;;;;4.75;3.95;;;;;;;;;;5002092;28;20041;-74
2023/04/27 09:55:45;;;;;;;6.75;3.72;;;;;;;;;;5002905;28;20053;-74
2023/04/27 09:58:25;;;;;;;4.15;3.13;;;;;;;;;;5002365;28;20037;-72
2023/04/27 10:01:10;;;;;;;6.40;3.65;;;;;;;;;;5001464;28;20161;-72
2023/04/27 10:04:16;;;;;;;4.15;3.30;;;;;;;;;;5001979;28;20132;-73
2023/04/27 10:06:55;;;;;;;4.60;3.13;;;;;;;;;;4985561;28;20073;-73
2023/04/27 10:09:25;;;;;;;3.90;3.53;;;;;;;;;;5002660;28;20053;-73
2023/04/27 10:11:52;;;;;;;4.65;2.92;;;;;;;;;;5001140;28;20055;-73
2023/04/27 10:14:20;;;;;;;4.70;3.40;;;;;;;;;;5001110;28;20406;-75
2023/04/27 10:16:52;;;;;;;9.93;3.78;;;;;;;;;;5002998;28;20053;-75
2023/04/27 10:19:18;;;;;;;4.13;3.33;;;;;;;;;;5001504;28;20038;-73
2023/04/27 10:22:10;;;;;;;4.82;3.50;;;;;;;;;;5002853;28;20053;-73
2023/04/27 10:24:38;;;;;;;9.10;3.55;;;;;;;;;;5008113;28;20136;-72
2023/04/27 10:27:06;;;;;;;5.70;3.28;;;;;;;;;;5003155;28;20049;-74
2023/04/27 10:29:43;;;;;;;5.03;3.22;;;;;;;;;;5003058;28;20081;-74
2023/04/27 10:32:08;;;;;;;6.22;3.20;;;;;;;;;;4999218;28;20137;-73
2023/04/27 10:34:37;;;;;;;6.15;3.40;;;;;;;;;;5017212;28;20141;-74
2023/04/27 10:37:07;;;;;;;9.75;3.47;;;;;;;;;;5000060;28;20053;-74
2023/04/27 10:39:36;;;;;;;4.10;3.58;;;;;;;;;;5002293;28;20056;-73
2023/04/27 10:42:02;;;;;;;8.43;4.07;;;;;;;;;;5002035;28;20061;-72
2023/04/27 10:44:30;;;;;;;4.43;3.65;;;;;;;;;;5001492;28;20050;-73
2023/04/27 10:47:00;;;;;;;3.97;3.55;;;;;;;;;;5001470;28;20883;-72
2023/04/27 10:49:29;;;;;;;8.23;3.88;;;;;;;;;;5001982;28;20522;-74
2023/04/27 10:52:01;;;;;;;6.95;3.40;;;;;;;;;;5002303;28;20050;-74
2023/04/27 10:54:28;;;;;;;4.70;3.17;;;;;;;;;;4999791;28;20065;-73
2023/04/27 10:57:00;;;;;;;7.50;3.15;;;;;;;;;;5002268;28;20042;-72
2023/04/27 10:59:26;;;;;;;5.18;3.45;;;;;;;;;;5000852;28;20042;-72
2023/04/27 11:01:51;;;;;;;7.25;3.63;;;;;;;;;;5002172;28;20079;-71
2023/04/27 11:04:18;;;;;;;6.25;3.55;;;;;;;;;;5016099;28;20161;-72
2023/04/27 11:06:47;;;;;;;5.43;2.90;;;;;;;;;;5001683;28;20045;-72
2023/04/27 11:09:13;;;;;;;4.53;3.10;;;;;;;;;;4999247;28;20502;-69
2023/04/27 11:11:44;;;;;;;5.13;3.13;;;;;;;;;;5001481;28;20426;-71
2023/04/27 11:14:13;;;;;;;6.35;3.28;;;;;;;;;;5000834;28;20062;-71
2023/04/27 11:16:45;;;;;;;7.25;2.88;;;;;;;;;;5001063;28;20129;-70
2023/04/27 11:19:11;;;;;;;4.38;3.40;;;;;;;;;;4999149;28;20061;-72
2023/04/27 11:21:36;;;;;;;4.75;3.30;;;;;;;;;;5001523;28;20060;-69
2023/04/27 11:24:06;;;;;;;6.47;3.17;;;;;;;;;;5000882;28;20050;-69
2023/04/27 11:26:32;;;;;;;5.22;3.35;;;;;;;;;;5001236;28;20046;-69
2023/04/27 11:29:08;;;;;;;7.82;2.80;;;;;;;;;;5016734;28;20550;-69
2023/04/27 11:31:47;;;;;;;5.32;2.92;;;;;;;;;;5001056;28;20069;-69
2023/04/27 11:34:21;;;;;;;4.93;2.78;;;;;;;;;;4999138;28;20045;-70
2023/04/27 11:37:01;;;;;;;3.33;2.90;;;;;;;;;;4999871;28;20042;-69
2023/04/27 11:39:27;;;;;;;5.40;2.88;;;;;;;;;;5000771;28;20049;-69
2023/04/27 11:41:53;;;;;;;5.47;3.83;;;;;;;;;;5000735;28;20503;-68
2023/04/27 11:44:25;;;;;;;5.35;2.70;;;;;;;;;;4999876;28;20132;-69
2023/04/27 11:46:51;;;;;;;7.63;3.28;;;;;;;;;;4999881;28;20057;-69
2023/04/27 11:49:17;;;;;;;4.78;3.33;;;;;;;;;;4999585;28;20084;-71
2023/04/27 11:51:45;;;;;;;5.20;3.15;;;;;;;;;;5000241;28;20050;-71
2023/04/27 11:54:11;;;;;;;5.70;3.15;;;;;;;;;;4998047;28;20050;-71
2023/04/27 11:56:41;;;;;;;4.97;2.85;;;;;;;;;;5000575;28;20973;-68
2023/04/27 11:59:19;;;;;;;3.38;3.08;;;;;;;;;;5000963;28;20579;-69
2023/04/27 12:01:44;;;;;;;5.78;2.90;;;;;;;;;;5001036;28;20037;-69
2023/04/27 12:04:10;;;;;;;4.30;3.08;;;;;;;;;;4997498;28;21094;-69
2023/04/27 12:06:36;;;;;;;3.47;2.60;;;;;;;;;;4999515;28;20042;-70
2023/04/27 12:09:02;;;;;;;10.10;2.67;;;;;;;;;;4999017;28;20080;-69
2023/04/27 12:11:28;;;;;;;5.25;2.00;;;;;;;;;;4999046;28;20423;-72
2023/04/27 12:13:54;;;;;;;2.55;2.25;;;;;;;;;;4996936;28;20491;-72
2023/04/27 12:16:22;;;;;;;3.40;3.10;;;;;;;;;;4998301;28;20132;-73
2023/04/27 12:18:51;;;;;;;4.80;2.53;;;;;;;;;;4999663;28;20053;-71
2023/04/27 12:21:17;;;;;;;5.32;2.40;;;;;;;;;;5000402;28;20055;-71
2023/04/27 12:23:42;;;;;;;6.22;2.70;;;;;;;;;;5000213;28;20661;-73
2023/04/27 12:26:08;;;;;;;4.28;2.67;;;;;;;;;;4995028;28;20588;-72
2023/04/27 12:28:34;;;;;;;3.47;2.60;;;;;;;;;;4998907;28;20602;-70
2023/04/27 12:31:02;;;;;;;4.90;2.78;;;;;;;;;;4981001;28;20450;-70
2023/04/27 12:33:28;;;;;;;3.97;2.70;;;;;;;;;;4999713;28;20058;-71
2023/04/27 12:35:53;;;;;;;6.47;2.63;;;;;;;;;;4999735;28;20046;-70
2023/04/27 12:38:18;;;;;;;4.03;2.85;;;;;;;;;;4998803;28;21780;-71
2023/04/27 12:40:44;;;;;;;5.80;2.88;;;;;;;;;;4998650;28;20092;-70
2023/04/27 12:43:11;;;;;;;3.78;2.75;;;;;;;;;;4981870;28;20045;-71
2023/04/27 12:45:37;;;;;;;4.68;2.58;;;;;;;;;;4999325;28;20049;-71
2023/04/27 12:48:02;;;;;;;6.97;2.78;;;;;;;;;;4998449;28;20103;-71
2023/04/27 12:50:29;;;;;;;6.63;3.40;;;;;;;;;;4999937;28;20519;-71
2023/04/27 12:52:54;;;;;;;7.60;2.85;;;;;;;;;;4999922;28;20957;-70
2023/04/27 12:55:20;;;;;;;7.15;2.70;;;;;;;;;;5000187;28;20056;-72
2023/04/27 12:57:45;;;;;;;6.95;2.95;;;;;;;;;;4999979;28;20073;-72
2023/04/27 13:00:12;;;;;;;5.53;2.65;;;;;;;;;;4998610;28;20042;-72
2023/04/27 13:02:37;;;;;;;2.45;2.25;;;;;;;;;;4999547;28;20042;-70
2023/04/27 13:05:04;;;;;;;2.65;2.05;;;;;;;;;;5000200;28;20072;-68
2023/04/27 13:07:30;;;;;;;5.47;2.22;;;;;;;;;;5000258;28;20037;-73
2023/04/27 13:09:55;;;;;;;2.42;2.20;;;;;;;;;;4999062;28;20049;-73
2023/04/27 13:12:21;;;;;;;4.68;2.15;;;;;;;;;;4999881;28;20058;-71
2023/04/27 13:14:46;;;;;;;5.25;2.28;;;;;;;;;;4998610;28;20042;-72
2023/04/27 13:17:12;;;;;;;6.63;2.13;;;;;;;;;;4999772;28;20052;-71
2023/04/27 13:19:37;;;;;;;4.00;2.42;;;;;;;;;;4999553;28;20045;-71
2023/04/27 13:22:08;;;;;;;5.75;2.42;;;;;;;;;;4998297;28;20159;-71
2023/04/27 13:24:34;;;;;;;4.40;2.63;;;;;;;;;;4999553;28;20056;-71
2023/04/27 13:27:00;;;;;;;3.75;2.20;;;;;;;;;;4998237;28;20053;-70
2023/04/27 13:29:26;;;;;;;3.05;2.22;;;;;;;;;;4997664;28;20038;-72
2023/04/27 13:31:51;;;;;;;8.57;2.90;;;;;;;;;;4998069;28;20414;-71
2023/04/27 13:34:17;;;;;;;4.30;2.70;;;;;;;;;;4997648;28;20071;-75
2023/04/27 13:36:43;;;;;;;4.07;2.15;;;;;;;;;;4999838;28;20426;-72
2023/04/27 13:39:09;;;;;;;4.10;2.20;;;;;;;;;;5001950;28;20049;-72
2023/04/27 13:41:34;;;;;;;2.00;1.85;;;;;;;;;;5002956;28;20053;-73
2023/04/27 13:44:01;;;;;;;4.68;2.03;;;;;;;;;;4997720;28;20042;-73
2023/04/27 13:46:26;;;;;;;2.63;1.70;;;;;;;;;;5001471;28;20053;-71
2023/04/27 13:48:52;;;;;;;7.25;2.13;;;;;;;;;;5002268;28;20056;-73
2023/04/27 13:51:17;;;;;;;2.00;1.80;;;;;;;;;;5003160;28;20172;-72
2023/04/27 13:53:43;;;;;;;4.95;2.00;;;;;;;;;;5001240;28;20057;-72
2023/04/27 13:56:08;;;;;;;2.20;1.83;;;;;;;;;;5001039;28;20053;-71
2023/04/27 13:58:34;;;;;;;4.22;2.28;;;;;;;;;;4998032;28;20137;-72
2023/04/27 14:00:59;;;;;;;2.10;1.90;;;;;;;;;;5001876;28;20038;-71
2023/04/27 14:03:25;;;;;;;3.58;2.20;;;;;;;;;;5001458;28;20077;-72
2023/04/27 14:05:51;;;;;;;7.90;3.22;;;;;;;;;;5002017;28;20444;-73
2023/04/27 14:08:17;;;;;;;4.50;2.58;;;;;;;;;;5002415;28;20056;-71
2023/04/27 14:10:43;;;;;;;8.82;2.83;;;;;;;;;;5001631;28;20070;-71
2023/04/27 14:13:09;;;;;;;2.78;2.10;;;;;;;;;;5002491;28;20050;-72
2023/04/27 14:15:36;;;;;;;2.35;1.98;;;;;;;;;;5000112;28;20053;-72
2023/04/27 14:18:06;;;;;;;4.35;2.20;;;;;;;;;;5001348;28;20108;-71
2023/04/27 14:20:35;;;;;;;6.32;2.20;;;;;;;;;;5003311;28;20383;-70
2023/04/27 14:23:02;;;;;;;5.57;2.20;;;;;;;;;;5003427;28;20085;-73
2023/04/27 14:25:31;;;;;;;6.88;2.47;;;;;;;;;;5001385;28;20048;-73
2023/04/27 14:27:58;;;;;;;6.22;3.00;;;;;;;;;;4999640;28;20981;-75
2023/04/27 14:30:24;;;;;;;4.97;2.33;;;;;;;;;;5001450;28;20058;-72
2023/04/27 14:32:49;;;;;;;3.03;2.42;;;;;;;;;;5002473;28;20057;-72
2023/04/27 14:35:15;;;;;;;3.22;2.05;;;;;;;;;;5002197;28;20045;-72
2023/04/27 14:37:40;;;;;;;3.28;2.33;;;;;;;;;;5001708;28;20597;-72